createdAt,value
2017-09-04T00:00:52.104Z,16.89
2017-09-04T00:03:19.744Z,16.93
2017-09-04T00:05:47.386Z,16.88
2017-09-04T00:08:15.005Z,16.77
2017-09-04T00:10:42.610Z,16.76
2017-09-04T00:13:10.243Z,16.67
2017-09-04T00:15:37.837Z,16.56
2017-09-04T00:18:05.461Z,16.59
2017-09-04T00:20:33.045Z,16.70
2017-09-04T00:23:00.687Z,16.75
2017-09-04T00:25:28.311Z,16.76
2017-09-04T00:27:55.938Z,16.82
2017-09-04T00:30:23.577Z,16.76
2017-09-04T00:32:51.218Z,16.69
2017-09-04T00:35:18.893Z,16.52
2017-09-04T00:37:46.494Z,16.49
2017-09-04T00:40:14.112Z,16.51
2017-09-04T00:42:41.714Z,16.53
2017-09-04T00:45:09.314Z,16.51
2017-09-04T00:47:36.922Z,16.42
2017-09-04T00:50:04.549Z,16.39
2017-09-04T00:52:32.168Z,16.42
2017-09-04T00:54:59.810Z,16.50
2017-09-04T00:57:27.451Z,16.51
2017-09-04T00:59:55.101Z,16.52
2017-09-04T01:02:22.718Z,16.46
2017-09-04T01:04:50.372Z,16.50
2017-09-04T01:07:17.995Z,16.46
2017-09-04T01:09:45.626Z,16.43
2017-09-04T01:12:13.247Z,16.39
2017-09-04T01:14:40.874Z,16.30
2017-09-04T01:17:08.514Z,16.23
2017-09-04T01:19:36.135Z,16.20
2017-09-04T01:22:03.757Z,16.18
2017-09-04T01:24:31.419Z,16.18
2017-09-04T01:26:59.078Z,16.16
2017-09-04T01:29:26.762Z,16.16
2017-09-04T01:31:54.411Z,16.17
2017-09-04T01:34:22.061Z,16.20
2017-09-04T01:36:49.722Z,16.08
2017-09-04T01:39:17.414Z,16.03
2017-09-04T01:41:45.062Z,16.03
2017-09-04T01:44:12.688Z,15.97
2017-09-04T01:46:40.341Z,15.94
2017-09-04T01:49:08.053Z,15.98
2017-09-04T01:51:35.682Z,16.04
2017-09-04T01:54:03.314Z,16.02
2017-09-04T01:56:30.931Z,15.97
2017-09-04T01:58:58.571Z,15.89
2017-09-04T02:01:26.166Z,15.87
2017-09-04T02:03:53.803Z,15.96
2017-09-04T02:06:21.435Z,15.98
2017-09-04T02:08:49.068Z,15.97
2017-09-04T02:11:16.699Z,15.95
2017-09-04T02:13:44.318Z,15.96
2017-09-04T02:16:11.978Z,15.92
2017-09-04T02:18:39.578Z,15.89
2017-09-04T02:21:07.210Z,15.88
2017-09-04T02:23:34.814Z,15.81
2017-09-04T02:26:02.439Z,15.77
2017-09-04T02:28:30.066Z,15.72
2017-09-04T02:30:57.734Z,15.74
2017-09-04T02:33:25.403Z,15.73
2017-09-04T02:35:53.045Z,15.76
2017-09-04T02:38:20.643Z,15.74
2017-09-04T02:40:48.287Z,15.63
2017-09-04T02:43:15.912Z,15.56
2017-09-04T02:45:43.534Z,15.51
2017-09-04T02:48:11.167Z,15.47
2017-09-04T02:50:38.808Z,15.45
2017-09-04T02:53:06.426Z,15.44
2017-09-04T02:55:34.071Z,15.44
2017-09-04T02:58:01.679Z,15.40
2017-09-04T03:00:29.380Z,15.41
2017-09-04T03:02:56.987Z,15.38
2017-09-04T03:05:24.623Z,15.32
2017-09-04T03:07:52.313Z,15.30
2017-09-04T03:10:19.930Z,15.27
2017-09-04T03:12:47.524Z,15.22
2017-09-04T03:15:15.234Z,15.19
2017-09-04T03:17:42.838Z,15.14
2017-09-04T03:20:10.498Z,15.12
2017-09-04T03:22:38.153Z,15.14
2017-09-04T03:25:05.766Z,15.12
2017-09-04T03:27:33.394Z,15.20
2017-09-04T03:30:00.990Z,15.24
2017-09-04T03:32:28.690Z,15.27
2017-09-04T03:34:56.290Z,15.18
2017-09-04T03:37:23.926Z,15.16
2017-09-04T03:39:51.532Z,15.12
2017-09-04T03:42:19.150Z,15.08
2017-09-04T03:44:46.739Z,15.09
2017-09-04T03:47:14.517Z,15.02
2017-09-04T03:49:42.105Z,15.00
2017-09-04T03:52:09.694Z,15.00
2017-09-04T03:54:37.314Z,15.05
2017-09-04T03:57:04.910Z,15.13
2017-09-04T03:59:32.570Z,15.12
2017-09-04T04:02:00.221Z,15.02
2017-09-04T04:04:27.872Z,15.02
2017-09-04T04:06:55.478Z,14.95
2017-09-04T04:09:23.116Z,14.97
2017-09-04T04:11:50.742Z,14.95
2017-09-04T04:14:18.382Z,14.95
2017-09-04T04:16:45.988Z,14.99
2017-09-04T04:19:13.714Z,15.01
2017-09-04T04:21:41.302Z,14.98
2017-09-04T04:24:09.326Z,14.93
2017-09-04T04:26:36.922Z,14.92
2017-09-04T04:29:04.504Z,14.95
2017-09-04T04:31:32.253Z,14.94
2017-09-04T04:33:59.874Z,14.89
2017-09-04T04:36:27.515Z,14.94
2017-09-04T04:38:55.118Z,14.97
2017-09-04T04:41:22.768Z,15.02
2017-09-04T04:43:50.563Z,14.97
2017-09-04T04:46:18.232Z,15.00
2017-09-04T04:48:45.838Z,14.89
2017-09-04T04:51:13.474Z,14.91
2017-09-04T04:53:41.094Z,14.78
2017-09-04T04:56:09.006Z,14.78
2017-09-04T04:58:36.607Z,14.75
2017-09-04T05:01:04.226Z,14.79
2017-09-04T05:03:31.937Z,14.78
2017-09-04T05:05:59.614Z,14.90
2017-09-04T05:08:27.347Z,14.93
2017-09-04T05:10:54.934Z,14.97
2017-09-04T05:13:22.606Z,15.06
2017-09-04T05:15:50.370Z,14.99
2017-09-04T05:18:18.159Z,14.92
2017-09-04T05:20:45.771Z,14.93
2017-09-04T05:23:13.374Z,14.80
2017-09-04T05:25:41.023Z,14.67
2017-09-04T05:28:08.618Z,14.54
2017-09-04T05:30:36.555Z,14.55
2017-09-04T05:33:04.256Z,14.50
2017-09-04T05:35:31.836Z,14.42
2017-09-04T05:37:59.563Z,14.37
2017-09-04T05:40:27.171Z,14.33
2017-09-04T05:42:54.966Z,14.27
2017-09-04T05:45:22.578Z,14.32
2017-09-04T05:47:50.242Z,14.35
2017-09-04T05:50:17.894Z,14.36
2017-09-04T05:52:45.566Z,14.35
2017-09-04T05:55:13.202Z,14.39
2017-09-04T05:57:41.043Z,14.47
2017-09-04T06:00:08.678Z,14.42
2017-09-04T06:02:36.287Z,14.41
2017-09-04T06:05:03.934Z,14.39
2017-09-04T06:07:31.542Z,14.48
2017-09-04T06:09:59.210Z,14.50
2017-09-04T06:12:26.847Z,14.51
2017-09-04T06:14:54.513Z,14.50
2017-09-04T06:17:22.206Z,14.49
2017-09-04T06:19:51.987Z,14.44
2017-09-04T06:22:19.646Z,14.48
2017-09-04T06:24:47.339Z,14.57
2017-09-04T06:27:14.986Z,14.61
2017-09-04T06:29:42.820Z,14.67
2017-09-04T06:32:10.475Z,14.58
2017-09-04T06:34:38.075Z,14.63
2017-09-04T06:37:05.744Z,14.70
2017-09-04T06:39:33.358Z,14.70
2017-09-04T06:42:01.007Z,14.80
2017-09-04T06:44:28.718Z,14.88
2017-09-04T06:46:56.386Z,14.90
2017-09-04T06:49:24.028Z,14.99
2017-09-04T06:51:51.666Z,15.10
2017-09-04T06:54:19.318Z,15.21
2017-09-04T06:56:46.936Z,15.32
2017-09-04T06:59:14.556Z,15.42
2017-09-04T07:01:42.223Z,15.47
2017-09-04T07:04:09.866Z,15.50
2017-09-04T07:06:37.475Z,15.52
2017-09-04T07:09:05.076Z,15.58
2017-09-04T07:11:32.740Z,15.59
2017-09-04T07:14:00.362Z,15.53
2017-09-04T07:16:28.013Z,15.58
2017-09-04T07:18:55.621Z,15.68
2017-09-04T07:21:23.286Z,15.72
2017-09-04T07:23:50.891Z,15.70
2017-09-04T07:26:18.515Z,15.76
2017-09-04T07:28:46.186Z,15.81
2017-09-04T07:31:13.862Z,15.80
2017-09-04T07:33:41.474Z,15.89
2017-09-04T07:36:09.119Z,15.99
2017-09-04T07:38:36.747Z,16.10
2017-09-04T07:41:04.408Z,16.14
2017-09-04T07:43:32.002Z,16.14
2017-09-04T07:45:59.654Z,16.11
2017-09-04T07:48:27.251Z,16.16
2017-09-04T07:50:54.946Z,16.22
2017-09-04T07:53:22.566Z,16.25
2017-09-04T07:55:50.170Z,16.32
2017-09-04T07:58:17.807Z,16.28
2017-09-04T08:00:45.430Z,16.26
2017-09-04T08:03:13.082Z,16.33
2017-09-04T08:05:40.682Z,16.41
2017-09-04T08:08:08.363Z,16.54
2017-09-04T08:10:35.962Z,16.69
2017-09-04T08:13:03.583Z,16.75
2017-09-04T08:15:31.214Z,16.85
2017-09-04T08:17:58.842Z,16.94
2017-09-04T08:20:26.473Z,17.00
2017-09-04T08:22:54.082Z,17.11
2017-09-04T08:25:21.684Z,17.24
2017-09-04T08:27:49.302Z,17.39
2017-09-04T08:30:16.903Z,17.52
2017-09-04T08:32:44.614Z,17.57
2017-09-04T08:35:12.255Z,17.68
2017-09-04T08:37:39.852Z,17.72
2017-09-04T08:40:07.498Z,17.80
2017-09-04T08:42:35.253Z,17.86
2017-09-04T08:45:02.900Z,17.90
2017-09-04T08:47:30.505Z,17.94
2017-09-04T08:49:58.131Z,17.96
2017-09-04T08:52:25.775Z,18.04
2017-09-04T08:54:53.411Z,18.11
2017-09-04T08:57:21.095Z,18.16
2017-09-04T08:59:48.745Z,18.25
2017-09-04T09:02:16.340Z,18.27
2017-09-04T09:04:44.014Z,18.35
2017-09-04T09:07:11.614Z,18.43
2017-09-04T09:09:39.279Z,18.49
2017-09-04T09:12:06.898Z,18.52
2017-09-04T09:14:34.491Z,18.59
2017-09-04T09:17:02.194Z,18.72
2017-09-04T09:19:29.806Z,18.81
2017-09-04T09:21:57.437Z,18.98
2017-09-04T09:24:25.165Z,19.06
2017-09-04T09:26:52.863Z,19.03
2017-09-04T09:29:20.463Z,19.10
2017-09-04T09:31:48.102Z,19.17
2017-09-04T09:34:15.699Z,19.23
2017-09-04T09:36:43.335Z,19.33
2017-09-04T09:39:11.066Z,19.50
2017-09-04T09:41:38.740Z,19.63
2017-09-04T09:44:06.340Z,19.70
2017-09-04T09:46:33.952Z,19.90
2017-09-04T09:49:01.570Z,20.09
2017-09-04T09:51:29.174Z,20.21
2017-09-04T09:53:56.797Z,20.30
2017-09-04T09:56:24.410Z,20.41
2017-09-04T09:58:52.046Z,20.22
2017-09-04T10:01:19.700Z,20.25
2017-09-04T10:03:47.518Z,20.21
2017-09-04T10:06:15.114Z,20.37
2017-09-04T10:08:42.727Z,20.60
2017-09-04T10:11:10.343Z,20.75
2017-09-04T10:13:37.932Z,20.85
2017-09-04T10:16:05.654Z,21.02
2017-09-04T10:18:33.250Z,21.22
2017-09-04T10:21:00.885Z,21.42
2017-09-04T10:23:28.470Z,21.44
2017-09-04T10:25:56.138Z,21.39
2017-09-04T10:28:23.743Z,21.49
2017-09-04T10:30:51.358Z,21.67
2017-09-04T10:33:18.963Z,21.87
2017-09-04T10:35:46.579Z,21.99
2017-09-04T10:38:14.200Z,21.99
2017-09-04T10:40:41.837Z,22.23
2017-09-04T10:43:09.490Z,22.33
2017-09-04T10:45:37.115Z,22.53
2017-09-04T10:48:04.706Z,22.67
2017-09-04T10:50:32.348Z,22.52
2017-09-04T10:52:59.947Z,22.39
2017-09-04T10:55:27.602Z,22.44
2017-09-04T10:57:55.195Z,22.27
2017-09-04T11:00:22.806Z,22.46
2017-09-04T11:02:50.464Z,22.73
2017-09-04T11:05:18.058Z,23.09
2017-09-04T11:07:45.685Z,23.31
2017-09-04T11:10:13.294Z,23.33
2017-09-04T11:12:40.939Z,23.40
2017-09-04T11:15:08.542Z,23.49
2017-09-04T11:17:36.153Z,23.41
2017-09-04T11:20:03.743Z,23.67
2017-09-04T11:22:31.363Z,23.83
2017-09-04T11:24:58.976Z,24.00
2017-09-04T11:27:26.739Z,23.88
2017-09-04T11:29:54.322Z,23.85
2017-09-04T11:32:21.934Z,23.83
2017-09-04T11:34:49.558Z,24.02
2017-09-04T11:37:17.183Z,24.47
2017-09-04T11:39:44.785Z,24.56
2017-09-04T11:42:12.414Z,24.26
2017-09-04T11:44:40.021Z,24.42
2017-09-04T11:47:07.663Z,24.15
2017-09-04T11:49:35.258Z,24.09
2017-09-04T11:52:02.853Z,24.12
2017-09-04T11:54:30.475Z,23.80
2017-09-04T11:56:58.062Z,23.33
2017-09-04T11:59:25.679Z,23.61
2017-09-04T12:01:53.271Z,23.85
2017-09-04T12:04:20.886Z,24.20
2017-09-04T12:06:48.615Z,24.45
2017-09-04T12:09:16.259Z,24.76
2017-09-04T12:11:43.846Z,24.76
2017-09-04T12:14:11.474Z,24.55
2017-09-04T12:16:39.075Z,24.82
2017-09-04T12:19:06.697Z,24.46
2017-09-04T12:21:34.292Z,24.80
2017-09-04T12:24:01.893Z,25.14
2017-09-04T12:26:29.528Z,25.33
2017-09-04T12:28:57.150Z,25.27
2017-09-04T12:31:24.861Z,24.69
2017-09-04T12:33:52.458Z,24.22
2017-09-04T12:36:20.070Z,23.65
2017-09-04T12:38:47.674Z,23.42
2017-09-04T12:41:15.310Z,23.40
2017-09-04T12:43:42.920Z,23.58
2017-09-04T12:46:10.550Z,23.74
2017-09-04T12:48:38.184Z,24.03
2017-09-04T12:51:05.810Z,24.48
2017-09-04T12:53:33.398Z,25.14
2017-09-04T12:56:01.071Z,25.13
2017-09-04T12:58:28.667Z,25.18
2017-09-04T13:00:56.299Z,25.44
2017-09-04T13:03:23.921Z,25.50
2017-09-04T13:05:51.559Z,25.39
2017-09-04T13:08:19.163Z,25.37
2017-09-04T13:10:52.214Z,24.92
2017-09-04T13:13:23.218Z,25.25
2017-09-04T13:15:56.278Z,25.58
2017-09-04T13:21:41.428Z,25.69
2017-09-04T13:27:14.282Z,24.53
2017-09-04T13:32:48.495Z,23.86
2017-09-04T13:38:22.353Z,23.96
2017-09-04T13:40:55.470Z,23.76
2017-09-04T13:46:41.805Z,24.05
2017-09-04T13:49:14.976Z,24.15
2017-09-04T13:51:47.656Z,24.03
2017-09-04T13:54:20.894Z,24.18
2017-09-04T13:56:48.936Z,24.34
2017-09-04T13:59:22.136Z,24.32
2017-09-04T14:01:55.211Z,24.37
2017-09-04T14:04:28.452Z,24.31
2017-09-04T14:07:01.635Z,24.37
2017-09-04T14:09:34.696Z,24.13
2017-09-04T14:12:07.787Z,23.87
2017-09-04T14:14:40.823Z,23.70
2017-09-04T14:20:08.119Z,23.68
2017-09-04T14:22:35.766Z,23.51
2017-09-04T14:25:03.355Z,23.31
2017-09-04T14:27:30.966Z,23.35
2017-09-04T14:29:58.583Z,23.36
2017-09-04T14:32:26.981Z,23.27
2017-09-04T14:34:54.568Z,23.27
2017-09-04T14:37:22.164Z,23.31
2017-09-04T14:39:49.774Z,23.42
2017-09-04T14:42:17.375Z,23.50
2017-09-04T14:44:47.469Z,23.51
2017-09-04T14:47:17.427Z,23.62
2017-09-04T14:49:45.052Z,23.50
2017-09-04T14:52:12.648Z,23.42
2017-09-04T14:54:40.271Z,23.43
2017-09-04T14:57:07.880Z,23.26
2017-09-04T14:59:35.503Z,23.35
2017-09-04T15:02:03.098Z,23.34
2017-09-04T15:04:30.762Z,23.31
2017-09-04T15:06:58.378Z,23.30
2017-09-04T15:09:25.964Z,23.17
2017-09-04T15:11:53.617Z,23.07
2017-09-04T15:14:21.197Z,22.97
2017-09-04T15:16:48.814Z,22.82
2017-09-04T15:19:16.407Z,22.76
2017-09-04T15:21:44.027Z,22.76
2017-09-04T15:24:11.700Z,22.70
2017-09-04T15:26:39.321Z,22.55
2017-09-04T15:29:06.919Z,22.39
2017-09-04T15:31:34.698Z,22.36
2017-09-04T15:34:02.364Z,22.33
2017-09-04T15:36:30.001Z,22.26
2017-09-04T15:38:57.643Z,22.24
2017-09-04T15:41:25.267Z,22.17
2017-09-04T15:43:52.887Z,22.18
2017-09-04T15:46:20.478Z,22.18
2017-09-04T15:48:48.091Z,22.15
2017-09-04T15:51:15.706Z,22.19
2017-09-04T15:53:43.315Z,22.20
2017-09-04T15:56:11.023Z,22.29
2017-09-04T15:58:38.636Z,22.14
2017-09-04T16:01:06.274Z,21.92
2017-09-04T16:03:33.908Z,21.83
2017-09-04T16:06:01.874Z,21.73
2017-09-04T16:08:29.462Z,21.83
2017-09-04T16:10:58.626Z,21.86
2017-09-04T16:13:26.226Z,21.83
2017-09-04T16:15:53.828Z,21.94
2017-09-04T16:18:25.824Z,22.01
2017-09-04T16:20:55.759Z,21.97
2017-09-04T16:23:33.290Z,21.88
2017-09-04T16:26:00.911Z,21.85
2017-09-04T16:28:30.558Z,21.83
2017-09-04T16:30:58.169Z,21.79
2017-09-04T16:33:29.212Z,21.77
2017-09-04T16:38:59.598Z,21.58
2017-09-04T16:41:27.198Z,21.58
2017-09-04T16:43:54.807Z,21.48
2017-09-04T16:46:30.798Z,21.47
2017-09-04T16:49:04.422Z,21.48
2017-09-04T16:51:35.567Z,21.51
2017-09-04T16:54:08.738Z,21.56
2017-09-04T16:59:32.496Z,21.54
2017-09-04T17:02:00.184Z,21.55
2017-09-04T17:04:28.565Z,21.45
2017-09-04T17:06:56.208Z,21.46
2017-09-04T17:09:23.879Z,21.42
2017-09-04T17:14:48.665Z,21.30
2017-09-04T17:17:16.376Z,21.30
2017-09-04T17:19:57.650Z,21.32
2017-09-04T17:22:25.645Z,21.27
2017-09-04T17:24:53.255Z,21.22
2017-09-04T17:27:20.911Z,21.24
2017-09-04T17:29:48.514Z,21.16
2017-09-04T17:32:16.145Z,21.10
2017-09-04T17:34:43.738Z,21.06
2017-09-04T17:37:11.370Z,21.07
2017-09-04T17:39:39.003Z,21.08
2017-09-04T17:42:06.634Z,21.11
2017-09-04T17:44:34.787Z,21.11
2017-09-04T17:47:02.480Z,21.08
2017-09-04T17:49:30.084Z,21.01
2017-09-04T17:51:57.712Z,21.00
2017-09-04T17:54:25.422Z,20.95
2017-09-04T17:56:53.006Z,20.98
2017-09-04T17:59:20.668Z,20.92
2017-09-04T18:01:48.294Z,20.91
2017-09-04T18:04:15.953Z,20.90
2017-09-04T18:06:43.570Z,20.88
2017-09-04T18:09:11.261Z,20.84
2017-09-04T18:11:38.862Z,20.85
2017-09-04T18:14:06.501Z,20.76
2017-09-04T18:16:34.110Z,20.77
2017-09-04T18:19:01.752Z,20.75
2017-09-04T18:21:29.364Z,20.76
2017-09-04T18:23:56.990Z,20.68
2017-09-04T18:26:24.609Z,20.63
2017-09-04T18:28:52.289Z,20.66
2017-09-04T18:31:19.971Z,20.68
2017-09-04T18:33:47.593Z,20.63
2017-09-04T18:36:15.210Z,20.60
2017-09-04T18:38:42.841Z,20.52
2017-09-04T18:41:10.435Z,20.44
2017-09-04T18:43:38.066Z,20.41
2017-09-04T18:46:05.675Z,20.36
2017-09-04T18:48:33.292Z,20.33
2017-09-04T18:51:00.907Z,20.26
2017-09-04T18:53:28.538Z,20.28
2017-09-04T18:55:56.127Z,20.33
2017-09-04T18:58:23.746Z,20.32
2017-09-04T19:00:51.350Z,20.28
2017-09-04T19:03:18.987Z,20.17
2017-09-04T19:05:46.594Z,20.09
2017-09-04T19:08:14.247Z,20.06
2017-09-04T19:10:41.843Z,20.07
2017-09-04T19:13:09.503Z,20.07
2017-09-04T19:15:37.203Z,20.03
2017-09-04T19:18:04.843Z,19.95
2017-09-04T19:20:32.463Z,19.87
2017-09-04T19:23:00.140Z,19.88
2017-09-04T19:25:27.735Z,19.89
2017-09-04T19:27:55.379Z,19.88
2017-09-04T19:30:22.989Z,19.89
2017-09-04T19:32:50.637Z,19.91
2017-09-04T19:35:18.250Z,19.93
2017-09-04T19:37:45.874Z,19.94
2017-09-04T19:40:13.519Z,19.99
2017-09-04T19:42:41.182Z,19.99
2017-09-04T19:45:08.798Z,19.98
2017-09-04T19:47:36.427Z,19.91
2017-09-04T19:50:04.069Z,19.84
2017-09-04T19:52:31.684Z,19.83
2017-09-04T19:54:59.490Z,19.84
2017-09-04T19:57:27.107Z,19.81
2017-09-04T19:59:54.845Z,19.80
2017-09-04T20:02:22.462Z,19.75
2017-09-04T20:04:50.100Z,19.77
2017-09-04T20:07:17.719Z,19.78
2017-09-04T20:09:45.407Z,19.73
2017-09-04T20:12:13.008Z,19.73
2017-09-04T20:14:40.676Z,19.72
2017-09-04T20:17:08.267Z,19.69
2017-09-04T20:19:35.915Z,19.66
2017-09-04T20:22:03.526Z,19.61
2017-09-04T20:24:31.234Z,19.57
2017-09-04T20:26:58.843Z,19.55
2017-09-04T20:29:26.466Z,19.49
2017-09-04T20:31:54.083Z,19.44
2017-09-04T20:34:21.918Z,19.39
2017-09-04T20:36:49.537Z,19.30
2017-09-04T20:39:17.170Z,19.28
2017-09-04T20:41:44.817Z,19.29
2017-09-04T20:44:12.504Z,19.36
2017-09-04T20:46:40.099Z,19.39
2017-09-04T20:49:07.774Z,19.40
2017-09-04T20:51:35.402Z,19.29
2017-09-04T20:54:03.037Z,19.31
2017-09-04T20:56:30.637Z,19.29
2017-09-04T20:58:58.291Z,19.34
2017-09-04T21:01:25.899Z,19.35
2017-09-04T21:03:53.566Z,19.30
2017-09-04T21:06:21.170Z,19.27
2017-09-04T21:08:48.826Z,19.27
2017-09-04T21:11:16.430Z,19.27
2017-09-04T21:13:44.071Z,19.25
2017-09-04T21:16:11.670Z,19.19
2017-09-04T21:18:39.270Z,19.24
2017-09-04T21:21:06.899Z,19.25
2017-09-04T21:23:34.538Z,19.26
2017-09-04T21:26:02.147Z,19.30
2017-09-04T21:28:29.827Z,19.23
2017-09-04T21:30:57.420Z,19.24
2017-09-04T21:33:25.103Z,19.15
2017-09-04T21:35:52.706Z,19.07
2017-09-04T21:38:20.333Z,19.06
2017-09-04T21:40:47.922Z,18.99
2017-09-04T21:43:15.567Z,19.07
2017-09-04T21:45:44.066Z,19.11
2017-09-04T21:48:11.711Z,19.12
2017-09-04T21:50:39.324Z,19.14
2017-09-04T21:53:06.994Z,19.07
2017-09-04T21:55:34.613Z,19.09
2017-09-04T21:58:02.202Z,19.14
2017-09-04T22:00:29.868Z,19.14
2017-09-04T22:02:57.461Z,19.18
2017-09-04T22:05:25.106Z,19.25
2017-09-04T22:07:52.714Z,19.27
2017-09-04T22:10:20.363Z,19.30
2017-09-04T22:12:47.979Z,19.24
2017-09-04T22:15:15.610Z,19.17
2017-09-04T22:17:43.208Z,19.12
2017-09-04T22:20:10.843Z,19.16
2017-09-04T22:22:38.444Z,19.16
2017-09-04T22:25:06.114Z,19.18
2017-09-04T22:27:33.775Z,19.14
2017-09-04T22:30:01.374Z,19.11
2017-09-04T22:32:28.971Z,19.07
2017-09-04T22:34:56.606Z,19.11
2017-09-04T22:37:24.202Z,19.13
2017-09-04T22:39:51.858Z,19.11
2017-09-04T22:42:19.463Z,19.14
2017-09-04T22:44:47.168Z,19.02
2017-09-04T22:47:14.734Z,19.01
2017-09-04T22:49:42.354Z,19.01
2017-09-04T22:52:09.948Z,19.05
2017-09-04T22:54:37.599Z,19.03
2017-09-04T22:57:05.202Z,19.02
2017-09-04T22:59:32.870Z,19.02
2017-09-04T23:02:00.487Z,19.01
2017-09-04T23:04:28.123Z,19.03
2017-09-04T23:06:55.743Z,19.02
2017-09-04T23:09:23.415Z,19.03
2017-09-04T23:11:50.987Z,18.95
2017-09-04T23:14:18.611Z,18.97
2017-09-04T23:16:46.212Z,18.98
2017-09-04T23:19:13.935Z,19.01
2017-09-04T23:21:41.543Z,18.92
2017-09-04T23:24:09.182Z,18.86
2017-09-04T23:26:36.807Z,18.85
2017-09-04T23:29:04.437Z,18.81
2017-09-04T23:31:32.095Z,18.81
2017-09-04T23:33:59.721Z,18.82
2017-09-04T23:36:27.322Z,18.75
2017-09-04T23:38:54.947Z,18.71
2017-09-04T23:41:22.538Z,18.75
2017-09-04T23:43:50.166Z,18.66
2017-09-04T23:46:17.762Z,18.65
2017-09-04T23:48:45.463Z,18.60
2017-09-04T23:51:13.047Z,18.53
2017-09-04T23:53:40.710Z,18.50
2017-09-04T23:56:08.295Z,18.51
2017-09-04T23:58:35.918Z,18.54
